Time;durP1;ratioP1;P1;durP2;ratioP2;P2;SDS_P1;SDS_P2;PMS_P1;PMS_P2;Temp;Humidity;BMP_temperature;BMP_pressure;BME280_temperature;BME280_humidity;BME280_pressure;Samples;Min_cycle;Max_cycle;Signal;HPM_P1;HPM_P2
2023/04/01 00:00:47;;;;;;;;;;;;;;;10.86;62.83;94385.56;4935922;29;1122;-53
2023/04/01 00:03:13;;;;;;;;;;;;;;;10.97;62.81;94387.00;4935840;29;1030;-53
2023/04/01 00:05:39;;;;;;;;;;;;;;;11.06;62.17;94382.38;4936757;29;983;-53
2023/04/01 00:08:05;;;;;;;;;;;;;;;11.08;61.79;94391.91;4940009;29;975;-53
2023/04/01 00:10:31;;;;;;;;;;;;;;;11.04;62.17;94387.06;4939595;29;1238;-53
2023/04/01 00:12:58;;;;;;;;;;;;;;;10.94;62.74;94387.34;4939692;29;1032;-52
2023/04/01 00:15:24;;;;;;;;;;;;;;;10.81;61.63;94387.94;4939689;29;1931;-53
2023/04/01 00:17:50;;;;;;;;;;;;;;;10.70;61.46;94391.91;4939507;29;1088;-53
2023/04/01 00:20:16;;;;;;;;;;;;;;;10.67;61.60;94381.56;4939879;29;1077;-52
2023/04/01 00:22:43;;;;;;;;;;;;;;;10.73;61.68;94383.50;4939662;29;1035;-52
2023/04/01 00:25:09;;;;;;;;;;;;;;;10.72;61.16;94381.88;4939775;29;995;-52
2023/04/01 00:27:35;;;;;;;;;;;;;;;10.63;61.42;94384.78;4939622;29;1222;-53
2023/04/01 00:30:01;;;;;;;;;;;;;;;10.72;61.17;94378.38;4939810;29;1244;-53
2023/04/01 00:32:27;;;;;;;;;;;;;;;10.58;62.03;94368.47;4939348;29;1038;-52
2023/04/01 00:34:53;;;;;;;;;;;;;;;10.52;61.96;94357.47;4939342;29;1997;-52
2023/04/01 00:37:20;;;;;;;;;;;;;;;10.45;62.14;94364.56;4939349;29;1206;-53
2023/04/01 00:39:46;;;;;;;;;;;;;;;10.31;62.59;94357.31;4939180;29;1026;-53
2023/04/01 00:42:13;;;;;;;;;;;;;;;10.06;62.60;94361.97;4939260;29;1047;-53
2023/04/01 00:44:39;;;;;;;;;;;;;;;10.00;62.23;94357.31;4939230;29;1539;-53
2023/04/01 00:47:05;;;;;;;;;;;;;;;10.02;62.06;94355.34;4939442;29;993;-53
2023/04/01 00:49:35;;;;;;;;;;;;;;;10.09;61.10;94348.25;4939377;29;1025;-53
2023/04/01 00:52:03;;;;;;;;;;;;;;;10.14;61.04;94344.03;4939327;29;980;-53
2023/04/01 00:54:30;;;;;;;;;;;;;;;10.19;60.82;94345.34;4938982;29;2009;-53
2023/04/01 00:56:57;;;;;;;;;;;;;;;10.25;60.87;94340.13;4939343;29;972;-53
2023/04/01 00:59:25;;;;;;;;;;;;;;;10.03;61.77;94338.28;4938836;29;1099;-53
2023/04/01 01:01:51;;;;;;;;;;;;;;;10.00;61.87;94338.63;4939176;29;1034;-52
2023/04/01 01:04:28;;;;;;;;;;;;;;;9.80;62.42;94332.94;4939038;29;975;-52
2023/04/01 01:07:04;;;;;;;;;;;;;;;9.70;63.17;94330.50;4938971;29;987;-52
2023/04/01 01:09:33;;;;;;;;;;;;;;;9.53;63.57;94340.44;4938755;29;1003;-52
2023/04/01 01:12:13;;;;;;;;;;;;;;;9.41;63.67;94325.78;4939108;29;970;-52
2023/04/01 01:14:42;;;;;;;;;;;;;;;9.30;63.35;94327.03;4938761;29;2090;-52
2023/04/01 01:17:47;;;;;;;;;;;;;;;9.43;63.18;94329.97;4938638;29;970;-52
2023/04/01 01:20:24;;;;;;;;;;;;;;;9.56;63.41;94327.56;4879810;29;1872;-52
2023/04/01 01:22:53;;;;;;;;;;;;;;;9.49;64.36;94320.44;4879800;29;1048;-52
2023/04/01 01:25:20;;;;;;;;;;;;;;;9.17;64.78;94319.56;4913236;29;1205;-52
2023/04/01 01:27:55;;;;;;;;;;;;;;;9.09;65.42;94311.63;4938573;29;961;-52
2023/04/01 01:30:36;;;;;;;;;;;;;;;9.30;64.28;94313.69;4938492;29;968;-52
2023/04/01 01:33:02;;;;;;;;;;;;;;;9.66;62.79;94313.19;4938417;29;1035;-52
2023/04/01 01:35:32;;;;;;;;;;;;;;;9.63;63.56;94313.50;4938480;29;2360;-52
2023/04/01 01:38:19;;;;;;;;;;;;;;;9.56;64.05;94313.38;4938140;29;1240;-53
2023/04/01 01:40:47;;;;;;;;;;;;;;;9.66;64.08;94321.19;4938301;29;1593;-53
2023/04/01 01:43:16;;;;;;;;;;;;;;;9.59;64.88;94315.69;4938418;29;1118;-52
2023/04/01 01:45:48;;;;;;;;;;;;;;;9.46;63.61;94316.25;4955594;29;1346;-53
2023/04/01 01:48:15;;;;;;;;;;;;;;;9.48;64.44;94306.25;4957190;29;1279;-52
2023/04/01 01:50:42;;;;;;;;;;;;;;;9.31;65.28;94310.00;4957474;29;960;-52
2023/04/01 01:53:11;;;;;;;;;;;;;;;9.23;65.12;94307.38;4957080;29;1079;-53
2023/04/01 01:55:38;;;;;;;;;;;;;;;9.53;64.01;94306.56;4957060;29;1980;-53
2023/04/01 01:58:09;;;;;;;;;;;;;;;9.64;63.63;94297.34;4957135;29;986;-53
2023/04/01 02:00:35;;;;;;;;;;;;;;;9.54;63.52;94300.22;4957319;29;1038;-53
2023/04/01 02:03:03;;;;;;;;;;;;;;;9.50;63.48;94290.06;4957217;29;984;-53
2023/04/01 02:05:30;;;;;;;;;;;;;;;9.55;63.44;94293.88;4957005;29;984;-52
2023/04/01 02:08:06;;;;;;;;;;;;;;;9.62;63.30;94298.50;4956928;29;1062;-53
2023/04/01 02:10:35;;;;;;;;;;;;;;;9.79;62.76;94302.75;4956790;29;1054;-52
2023/04/01 02:13:06;;;;;;;;;;;;;;;9.90;63.18;94290.81;4957018;29;979;-52
2023/04/01 02:15:33;;;;;;;;;;;;;;;9.82;64.26;94286.34;4956862;29;1907;-52
2023/04/01 02:17:59;;;;;;;;;;;;;;;9.89;63.97;94279.31;4957065;29;1055;-52
2023/04/01 02:20:27;;;;;;;;;;;;;;;9.77;64.81;94286.91;4956559;29;1031;-52
2023/04/01 02:22:55;;;;;;;;;;;;;;;9.82;64.74;94299.69;4956827;29;1031;-53
2023/04/01 02:25:23;;;;;;;;;;;;;;;9.99;65.04;94296.94;4956550;29;1013;-52
2023/04/01 02:27:49;;;;;;;;;;;;;;;10.09;64.90;94300.19;4956663;28;1050;-52
2023/04/01 02:30:16;;;;;;;;;;;;;;;10.09;64.99;94305.53;4956131;29;1023;-52
2023/04/01 02:32:42;;;;;;;;;;;;;;;10.09;65.12;94298.38;4956823;29;1108;-52
2023/04/01 02:35:10;;;;;;;;;;;;;;;9.93;65.48;94304.63;4956591;29;1907;-52
2023/04/01 02:37:38;;;;;;;;;;;;;;;9.75;66.43;94296.06;4956124;29;1172;-53
2023/04/01 02:40:06;;;;;;;;;;;;;;;9.80;65.12;94291.03;4956550;29;1306;-52
2023/04/01 02:42:32;;;;;;;;;;;;;;;9.90;64.40;94289.00;4956160;29;1659;-52
2023/04/01 02:44:58;;;;;;;;;;;;;;;9.99;64.52;94283.56;4944650;29;1373;-52
2023/04/01 02:47:24;;;;;;;;;;;;;;;9.90;64.98;94272.97;4937172;29;983;-52
2023/04/01 02:49:50;;;;;;;;;;;;;;;9.68;65.06;94263.13;4937073;29;1047;-52
2023/04/01 02:52:16;;;;;;;;;;;;;;;9.71;66.22;94255.59;4936812;29;1031;-53
2023/04/01 02:54:42;;;;;;;;;;;;;;;9.71;66.71;94246.72;4936754;29;1915;-52
2023/04/01 02:57:08;;;;;;;;;;;;;;;9.72;66.68;94251.06;4920169;29;1000;-52
2023/04/01 02:59:34;;;;;;;;;;;;;;;9.85;66.83;94259.31;4936938;29;1018;-52
2023/04/01 03:02:00;;;;;;;;;;;;;;;9.97;66.38;94265.88;4936665;29;1038;-52
2023/04/01 03:04:26;;;;;;;;;;;;;;;9.87;66.99;94262.63;4936962;29;979;-52
2023/04/01 03:06:52;;;;;;;;;;;;;;;9.90;66.67;94266.78;4936553;29;1031;-52
2023/04/01 03:09:18;;;;;;;;;;;;;;;9.97;66.76;94257.88;4936467;29;1259;-53
2023/04/01 03:11:44;;;;;;;;;;;;;;;9.74;67.03;94251.72;4936875;29;982;-52
2023/04/01 03:14:10;;;;;;;;;;;;;;;9.72;67.11;94243.06;4936425;29;1891;-52
2023/04/01 03:16:36;;;;;;;;;;;;;;;9.89;65.89;94254.44;4936639;29;1026;-52
2023/04/01 03:19:03;;;;;;;;;;;;;;;9.96;65.64;94261.56;4936417;29;2038;-52
2023/04/01 03:21:29;;;;;;;;;;;;;;;9.99;65.39;94244.34;4936282;29;1039;-53
2023/04/01 03:23:55;;;;;;;;;;;;;;;10.02;65.60;94232.50;4936327;29;1014;-52
2023/04/01 03:26:21;;;;;;;;;;;;;;;9.86;67.12;94234.25;4936194;29;1211;-52
2023/04/01 03:28:47;;;;;;;;;;;;;;;9.62;67.18;94227.28;4936278;29;1063;-53
2023/04/01 03:31:14;;;;;;;;;;;;;;;9.62;66.99;94205.94;4936159;29;1227;-52
2023/04/01 03:33:40;;;;;;;;;;;;;;;9.75;66.06;94202.66;4936454;29;1907;-52
2023/04/01 03:36:07;;;;;;;;;;;;;;;9.80;66.03;94213.63;4936475;29;1003;-52
2023/04/01 03:38:36;;;;;;;;;;;;;;;9.92;66.89;94222.88;4935902;29;1096;-52
2023/04/01 03:41:02;;;;;;;;;;;;;;;9.94;67.03;94218.19;4936372;29;1033;-52
2023/04/01 03:43:28;;;;;;;;;;;;;;;9.83;67.20;94202.59;4936004;29;1118;-49
2023/04/01 03:45:54;;;;;;;;;;;;;;;9.75;66.34;94216.00;4955341;29;1331;-52
2023/04/01 03:48:20;;;;;;;;;;;;;;;9.84;65.48;94225.59;4955170;29;979;-55
2023/04/01 03:50:46;;;;;;;;;;;;;;;9.74;65.73;94214.34;4955079;29;1190;-53
2023/04/01 03:53:12;;;;;;;;;;;;;;;9.77;65.49;94214.81;4955181;29;1010;-53
2023/04/01 03:55:39;;;;;;;;;;;;;;;9.79;65.57;94206.66;4955136;29;1914;-52
2023/04/01 03:58:06;;;;;;;;;;;;;;;9.77;65.72;94198.81;4955367;29;1038;-52
2023/04/01 04:00:33;;;;;;;;;;;;;;;9.76;66.50;94197.13;4955348;29;1006;-51
2023/04/01 04:02:59;;;;;;;;;;;;;;;9.57;65.91;94193.13;4955153;29;976;-52
2023/04/01 04:05:26;;;;;;;;;;;;;;;9.48;66.72;94188.84;4955033;29;1034;-52
2023/04/01 04:07:52;;;;;;;;;;;;;;;9.62;67.30;94183.75;4955198;29;1027;-52
2023/04/01 04:10:18;;;;;;;;;;;;;;;9.76;67.58;94180.31;4955152;29;989;-52
2023/04/01 04:12:45;;;;;;;;;;;;;;;9.78;67.43;94175.59;4954958;29;1977;-52
2023/04/01 04:15:11;;;;;;;;;;;;;;;9.78;67.98;94167.59;4955110;29;1910;-52
2023/04/01 04:17:37;;;;;;;;;;;;;;;9.77;67.37;94164.09;4955090;29;1042;-53
2023/04/01 04:20:03;;;;;;;;;;;;;;;9.60;67.73;94154.59;4955017;29;1043;-52
2023/04/01 04:22:29;;;;;;;;;;;;;;;9.45;67.04;94159.88;4954741;29;1304;-52
2023/04/01 04:24:55;;;;;;;;;;;;;;;9.53;66.89;94150.97;4955239;29;1049;-53
2023/04/01 04:27:21;;;;;;;;;;;;;;;9.35;68.54;94148.59;4954821;29;1894;-52
2023/04/01 04:29:47;;;;;;;;;;;;;;;9.38;68.46;94142.91;4954867;29;1042;-53
2023/04/01 04:32:13;;;;;;;;;;;;;;;9.35;67.39;94132.59;4955099;29;968;-53
2023/04/01 04:34:39;;;;;;;;;;;;;;;9.45;67.02;94141.19;4954810;29;1907;-52
2023/04/01 04:37:05;;;;;;;;;;;;;;;9.43;67.87;94129.88;4954494;29;1065;-52
2023/04/01 04:39:31;;;;;;;;;;;;;;;9.48;67.85;94138.16;4954981;29;990;-52
2023/04/01 04:41:57;;;;;;;;;;;;;;;9.44;68.72;94120.84;4954762;29;1035;-52
2023/04/01 04:44:23;;;;;;;;;;;;;;;9.41;68.76;94112.38;4947810;29;1663;-52
2023/04/01 04:46:49;;;;;;;;;;;;;;;9.10;69.30;94111.44;4935734;29;1041;-52
2023/04/01 04:49:15;;;;;;;;;;;;;;;9.18;69.06;94108.72;4935533;29;1145;-52
2023/04/01 04:51:41;;;;;;;;;;;;;;;9.12;69.68;94119.25;4936300;29;968;-52
2023/04/01 04:54:08;;;;;;;;;;;;;;;9.09;70.15;94130.28;4939287;29;1982;-52
2023/04/01 04:56:35;;;;;;;;;;;;;;;9.13;69.59;94118.25;4939170;29;960;-53
2023/04/01 04:59:02;;;;;;;;;;;;;;;9.17;69.12;94117.72;4939192;29;1042;-52
2023/04/01 05:01:28;;;;;;;;;;;;;;;9.21;69.02;94120.84;4922070;29;1031;-51
2023/04/01 05:03:54;;;;;;;;;;;;;;;9.22;69.16;94114.53;4938964;29;1020;-52
2023/04/01 05:06:20;;;;;;;;;;;;;;;9.00;69.35;94105.50;4938737;29;1026;-51
2023/04/01 05:08:46;;;;;;;;;;;;;;;8.96;69.06;94101.53;4939051;29;1062;-52
2023/04/01 05:11:13;;;;;;;;;;;;;;;9.04;68.98;94101.47;4938984;29;982;-52
2023/04/01 05:13:40;;;;;;;;;;;;;;;9.28;68.20;94107.66;4938985;29;1935;-52
2023/04/01 05:16:10;;;;;;;;;;;;;;;9.71;67.28;94113.28;4938954;29;972;-51
2023/04/01 05:18:36;;;;;;;;;;;;;;;9.85;65.37;94103.66;4938655;29;1034;-52
2023/04/01 05:21:02;;;;;;;;;;;;;;;10.29;64.11;94103.66;4938471;29;1018;-52
2023/04/01 05:23:28;;;;;;;;;;;;;;;10.55;63.44;94107.75;4938839;29;1022;-52
2023/04/01 05:25:54;;;;;;;;;;;;;;;10.83;62.92;94107.03;4921914;29;1022;-52
2023/04/01 05:28:20;;;;;;;;;;;;;;;11.14;62.73;94096.88;4938718;29;1062;-52
2023/04/01 05:30:46;;;;;;;;;;;;;;;11.27;61.15;94090.84;4938472;29;1035;-52
2023/04/01 05:33:12;;;;;;;;;;;;;;;11.55;59.87;94071.31;4938668;29;984;-52
2023/04/01 05:35:39;;;;;;;;;;;;;;;12.11;59.28;94073.19;4938209;29;1903;-52
2023/04/01 05:38:05;;;;;;;;;;;;;;;12.48;58.03;94084.50;4938291;29;1906;-52
2023/04/01 05:40:32;;;;;;;;;;;;;;;12.58;56.75;94081.50;4938407;29;1039;-52
2023/04/01 05:42:58;;;;;;;;;;;;;;;13.03;55.04;94081.84;4938566;29;1054;-51
2023/04/01 05:45:24;;;;;;;;;;;;;;;13.44;55.83;94084.44;4953374;29;1366;-52
2023/04/01 05:47:50;;;;;;;;;;;;;;;13.59;53.80;94088.78;4957348;29;983;-52
2023/04/01 05:50:16;;;;;;;;;;;;;;;13.55;53.12;94090.25;4957088;29;1046;-51
2023/04/01 05:52:42;;;;;;;;;;;;;;;13.86;52.22;94074.31;4957279;29;2004;-53
2023/04/01 05:55:08;;;;;;;;;;;;;;;14.59;50.37;94065.31;4940336;29;1907;-52
2023/04/01 05:57:34;;;;;;;;;;;;;;;14.78;49.63;94063.59;4957084;29;1534;-51
2023/04/01 06:00:01;;;;;;;;;;;;;;;14.68;50.52;94057.00;4957374;29;1033;-51
2023/04/01 06:02:27;;;;;;;;;;;;;;;14.48;50.52;94065.94;4956801;28;1090;-51
2023/04/01 06:05:01;;;;;;;;;;;;;;;14.04;51.62;94062.13;4956102;29;1038;-51
2023/04/01 06:07:27;;;;;;;;;;;;;;;13.70;51.98;94058.63;4956039;29;1095;-51
2023/04/01 06:09:54;;;;;;;;;;;;;;;13.54;53.66;94054.47;4957157;29;1048;-51
2023/04/01 06:12:20;;;;;;;;;;;;;;;13.38;53.69;94055.72;4957041;29;1045;-51
2023/04/01 06:15:05;;;;;;;;;;;;;;;13.25;55.45;94043.06;4956784;29;1997;-51
2023/04/01 06:17:46;;;;;;;;;;;;;;;13.11;56.71;94037.88;4956829;29;1010;-51
2023/04/01 06:20:23;;;;;;;;;;;;;;;13.02;58.00;94034.59;4956759;29;1046;-51
2023/04/01 06:22:55;;;;;;;;;;;;;;;12.87;58.88;94029.38;4956649;29;1047;-51
2023/04/01 06:25:21;;;;;;;;;;;;;;;12.73;58.70;94027.69;4956567;29;1026;-51
2023/04/01 06:28:13;;;;;;;;;;;;;;;12.77;58.39;94027.09;4956460;29;1035;-51
2023/04/01 06:30:43;;;;;;;;;;;;;;;12.77;58.15;94045.06;4956489;29;1031;-51
2023/04/01 06:33:30;;;;;;;;;;;;;;;12.64;58.09;94041.28;4956599;29;1123;-51
2023/04/01 06:36:02;;;;;;;;;;;;;;;12.64;57.86;94045.81;4946110;29;1982;-51
2023/04/01 06:38:37;;;;;;;;;;;;;;;12.76;57.69;94044.19;4956069;29;1116;-51
2023/04/01 06:41:12;;;;;;;;;;;;;;;12.67;59.72;94037.34;4956520;29;967;-51
2023/04/01 06:43:48;;;;;;;;;;;;;;;12.74;58.53;94048.13;4955217;29;1282;-51
2023/04/01 06:46:14;;;;;;;;;;;;;;;12.71;58.66;94041.31;4937094;29;1067;-51
2023/04/01 06:48:40;;;;;;;;;;;;;;;12.83;58.15;94039.69;4937008;29;1010;-50
2023/04/01 06:51:16;;;;;;;;;;;;;;;12.84;57.01;94037.81;4936719;29;1044;-51
2023/04/01 06:53:53;;;;;;;;;;;;;;;12.82;57.76;94031.84;4937065;29;1059;-51
2023/04/01 06:56:20;;;;;;;;;;;;;;;12.93;57.19;94033.13;4936999;29;1015;-51
2023/04/01 06:58:53;;;;;;;;;;;;;;;13.06;56.37;94035.81;4936905;29;1031;-51
2023/04/01 07:01:27;;;;;;;;;;;;;;;13.02;54.43;94031.91;4936984;29;990;-51
2023/04/01 07:03:56;;;;;;;;;;;;;;;13.07;55.11;94034.78;4937105;29;1051;-51
2023/04/01 07:06:25;;;;;;;;;;;;;;;13.12;55.16;94034.19;4936749;29;972;-51
2023/04/01 07:08:53;;;;;;;;;;;;;;;13.19;54.65;94035.03;4936734;29;1066;-51
2023/04/01 07:11:34;;;;;;;;;;;;;;;13.23;53.26;94036.25;4936602;29;975;-51
2023/04/01 07:14:03;;;;;;;;;;;;;;;13.31;53.58;94024.53;4936781;29;1993;-51
2023/04/01 07:16:32;;;;;;;;;;;;;;;13.53;52.67;94019.81;4936497;29;1062;-51
2023/04/01 07:19:04;;;;;;;;;;;;;;;13.57;52.76;94012.97;4936351;29;1086;-51
2023/04/01 07:21:35;;;;;;;;;;;;;;;13.77;52.36;94013.81;4936410;29;1047;-51
2023/04/01 07:24:05;;;;;;;;;;;;;;;14.02;52.12;94013.13;4936940;29;1056;-51
2023/04/01 07:26:31;;;;;;;;;;;;;;;14.22;51.51;94010.38;4936165;29;1046;-51
2023/04/01 07:28:57;;;;;;;;;;;;;;;14.94;51.37;94011.13;4936255;29;1035;-51
2023/04/01 07:31:36;;;;;;;;;;;;;;;15.03;50.24;94003.66;4936324;29;1038;-50
2023/04/01 07:34:12;;;;;;;;;;;;;;;15.12;50.14;93999.66;4936202;29;1910;-51
2023/04/01 07:36:40;;;;;;;;;;;;;;;15.18;49.77;93987.19;4936389;29;948;-50
2023/04/01 07:39:29;;;;;;;;;;;;;;;15.11;50.02;93972.94;4936247;29;1042;-51
2023/04/01 07:42:13;;;;;;;;;;;;;;;15.12;50.38;93972.75;4936265;29;1023;-51
2023/04/01 07:44:48;;;;;;;;;;;;;;;15.60;44.98;93984.78;4945456;29;1612;-49
2023/04/01 07:47:20;;;;;;;;;;;;;;;15.96;44.94;93975.97;4955228;29;1031;-50
2023/04/01 07:50:05;;;;;;;;;;;;;;;16.27;44.88;93962.59;4938221;29;1106;-51
2023/04/01 07:52:37;;;;;;;;;;;;;;;16.48;42.75;93966.69;4955287;29;1035;-51
2023/04/01 07:55:22;;;;;;;;;;;;;;;16.53;42.26;93956.88;4955221;29;1906;-51
2023/04/01 07:57:57;;;;;;;;;;;;;;;16.57;41.79;93947.25;4955112;29;1043;-50
2023/04/01 08:00:29;;;;;;;;;;;;;;;16.71;41.90;93939.84;4955056;29;1169;-51
2023/04/01 08:03:10;;;;;;;;;;;;;;;16.25;46.38;93913.44;4955307;29;955;-51
2023/04/01 08:05:39;;;;;;;;;;;;;;;15.81;47.84;93900.06;4955365;29;957;-51
2023/04/01 08:08:10;;;;;;;;;;;;;;;15.58;50.89;93884.53;4955136;29;1117;-51
2023/04/01 08:10:36;;;;;;;;;;;;;;;16.51;49.86;93879.91;4955134;29;975;-51
2023/04/01 08:13:04;;;;;;;;;;;;;;;18.26;42.95;93893.00;4955050;29;1026;-51
2023/04/01 08:15:33;;;;;;;;;;;;;;;19.33;45.37;93869.81;4954954;29;1988;-51
2023/04/01 08:17:59;;;;;;;;;;;;;;;19.76;43.76;93865.59;4955032;29;1030;-51
2023/04/01 08:20:31;;;;;;;;;;;;;;;19.56;44.22;93855.25;4955179;29;1023;-51
2023/04/01 08:22:59;;;;;;;;;;;;;;;20.34;37.67;93882.38;4938033;29;1019;-51
2023/04/01 08:25:26;;;;;;;;;;;;;;;21.56;34.79;93884.72;4955181;29;1213;-51
2023/04/01 08:28:13;;;;;;;;;;;;;;;22.18;32.83;93885.16;4957648;28;1005;-51
2023/04/01 08:30:43;;;;;;;;;;;;;;;22.66;31.74;93894.09;4958549;29;1887;-51
2023/04/01 08:33:18;;;;;;;;;;;;;;;22.85;32.24;93894.41;4958811;29;1098;-51
2023/04/01 08:35:44;;;;;;;;;;;;;;;20.84;31.95;93894.91;4958993;29;1914;-50
2023/04/01 08:38:13;;;;;;;;;;;;;;;21.14;31.60;93877.28;4958554;29;1097;-50
2023/04/01 08:40:52;;;;;;;;;;;;;;;21.31;32.02;93873.63;4958665;29;1031;-51
2023/04/01 08:43:30;;;;;;;;;;;;;;;21.20;31.90;93870.81;4958706;29;1122;-50
2023/04/01 08:45:56;;;;;;;;;;;;;;;22.01;31.18;93858.91;4958547;29;1054;-51
2023/04/01 08:48:28;;;;;;;;;;;;;;;22.22;29.96;93861.75;4958434;29;1043;-51
2023/04/01 08:51:12;;;;;;;;;;;;;;;22.88;29.77;93866.66;4958483;29;1320;-51
2023/04/01 08:53:57;;;;;;;;;;;;;;;23.49;29.47;93855.00;4958518;29;1051;-52
2023/04/01 08:56:26;;;;;;;;;;;;;;;23.75;29.35;93841.31;4958452;29;1094;-52
2023/04/01 08:58:57;;;;;;;;;;;;;;;23.48;28.42;93852.53;4958590;29;1034;-51
2023/04/01 09:01:23;;;;;;;;;;;;;;;23.56;28.40;93849.25;4958309;29;1035;-51
2023/04/01 09:03:58;;;;;;;;;;;;;;;23.08;29.10;93844.06;4958184;29;1860;-51
2023/04/01 09:06:37;;;;;;;;;;;;;;;22.00;29.89;93834.69;4934804;29;2078;-52
2023/04/01 09:09:06;;;;;;;;;;;;;;;21.24;31.21;93835.78;4938958;29;1042;-51
2023/04/01 09:11:52;;;;;;;;;;;;;;;20.56;31.31;93838.91;4938923;29;1145;-49
2023/04/01 09:14:21;;;;;;;;;;;;;;;20.27;31.80;93841.03;4931392;29;1911;-51
2023/04/01 09:16:47;;;;;;;;;;;;;;;20.39;31.65;93828.13;4932667;29;1695;-50
2023/04/01 09:19:32;;;;;;;;;;;;;;;20.51;31.94;93824.47;4937714;29;1573;-52
2023/04/01 09:22:00;;;;;;;;;;;;;;;20.52;31.91;93818.78;4937364;29;1643;-51
2023/04/01 09:24:31;;;;;;;;;;;;;;;20.57;32.18;93818.84;4920792;29;1113;-52
2023/04/01 09:27:00;;;;;;;;;;;;;;;20.78;32.00;93808.22;4925396;29;1762;-52
2023/04/01 09:29:26;;;;;;;;;;;;;;;20.70;31.87;93806.78;4931343;29;1031;-52
2023/04/01 09:31:52;;;;;;;;;;;;;;;20.57;32.32;93807.97;4938648;29;984;-53
2023/04/01 09:34:18;;;;;;;;;;;;;;;20.42;32.01;93807.81;4938607;29;2010;-52
2023/04/01 09:40:44;;;;;;;;;;;;;;;19.89;32.54;93792.00;4919862;29;1659;-52
2023/04/01 09:43:13;;;;;;;;;;;;;;;19.89;32.64;93786.59;4938428;29;1044;-53
2023/04/01 09:45:43;;;;;;;;;;;;;;;19.85;32.30;93774.59;4938606;29;1054;-51
2023/04/01 09:48:15;;;;;;;;;;;;;;;19.88;32.79;93775.97;4938301;29;1048;-51
2023/04/01 09:50:52;;;;;;;;;;;;;;;19.93;33.07;93781.47;4938078;29;1855;-53
2023/04/01 09:53:18;;;;;;;;;;;;;;;20.17;32.27;93771.19;4919264;29;1039;-53
2023/04/01 09:55:56;;;;;;;;;;;;;;;20.32;32.53;93767.84;4919634;29;1984;-52
2023/04/01 09:58:37;;;;;;;;;;;;;;;20.44;32.50;93776.63;4928949;29;1444;-53
2023/04/01 10:01:04;;;;;;;;;;;;;;;20.51;32.19;93759.31;4932544;29;1498;-53
2023/04/01 10:03:43;;;;;;;;;;;;;;;20.56;32.34;93767.50;4930112;29;1668;-53
2023/04/01 10:06:35;;;;;;;;;;;;;;;20.34;32.26;93768.38;4932899;29;1318;-53
2023/04/01 10:09:20;;;;;;;;;;;;;;;20.28;32.67;93774.84;4926800;29;1609;-53
2023/04/01 10:12:05;;;;;;;;;;;;;;;20.16;31.96;93772.25;4934452;29;1732;-52
2023/04/01 10:14:46;;;;;;;;;;;;;;;20.07;32.62;93766.47;4932273;29;1992;-53
2023/04/01 10:17:25;;;;;;;;;;;;;;;20.23;32.93;93756.59;4926483;29;1543;-52
2023/04/01 10:20:10;;;;;;;;;;;;;;;20.34;32.84;93749.41;4926519;29;1280;-55
2023/04/01 10:22:42;;;;;;;;;;;;;;;20.37;32.25;93756.19;4935403;29;1194;-53
2023/04/01 10:25:27;;;;;;;;;;;;;;;20.23;33.30;93763.94;4935643;29;1874;-52
2023/04/01 10:28:04;;;;;;;;;;;;;;;20.11;33.13;93753.22;4936272;29;1540;-52
2023/04/01 10:30:48;;;;;;;;;;;;;;;20.05;32.76;93746.06;4937399;29;1210;-54
2023/04/01 10:33:33;;;;;;;;;;;;;;;20.09;33.50;93748.03;4936680;29;1545;-55
2023/04/01 10:36:18;;;;;;;;;;;;;;;20.30;33.46;93737.41;4930812;29;1911;-55
2023/04/01 10:39:03;;;;;;;;;;;;;;;20.95;32.32;93741.00;4926672;29;1480;-54
2023/04/01 10:41:29;;;;;;;;;;;;;;;21.90;31.13;93733.97;4927119;29;1323;-55
2023/04/01 10:43:55;;;;;;;;;;;;;;;22.29;30.34;93731.69;4925528;29;1362;-53
2023/04/01 10:46:21;;;;;;;;;;;;;;;22.02;30.99;93726.38;4927113;29;1318;-52
2023/04/01 10:48:47;;;;;;;;;;;;;;;22.12;31.20;93712.00;4927062;29;1582;-53
2023/04/01 10:51:25;;;;;;;;;;;;;;;21.67;31.00;93719.72;4925027;29;1437;-52
2023/04/01 10:53:54;;;;;;;;;;;;;;;21.33;31.25;93732.84;4925989;29;1451;-53
2023/04/01 10:56:34;;;;;;;;;;;;;;;20.90;31.66;93745.56;4925736;29;1332;-52
2023/04/01 10:59:13;;;;;;;;;;;;;;;20.46;32.29;93744.63;4925774;29;1281;-52
2023/04/01 11:01:39;;;;;;;;;;;;;;;20.16;33.57;93763.28;4925742;29;1462;-53
2023/04/01 11:04:14;;;;;;;;;;;;;;;19.89;33.96;93748.63;4927951;29;1597;-52
2023/04/01 11:06:49;;;;;;;;;;;;;;;19.51;34.59;93790.94;4937095;29;1044;-53
2023/04/01 11:09:27;;;;;;;;;;;;;;;19.30;36.67;93818.81;4936862;29;1035;-53
2023/04/01 11:12:08;;;;;;;;;;;;;;;18.99;40.04;93836.44;4934286;29;1585;-52
2023/04/01 11:14:34;;;;;;;;;;;;;;;18.12;47.49;93841.88;4935128;29;2041;-52
2023/04/01 11:17:19;;;;;;;;;;;;;;;16.82;52.18;93854.56;4936591;29;1066;-52
2023/04/01 11:20:04;;;;;;;;;;;;;;;15.49;58.06;93865.13;4929398;29;1076;-52
2023/04/01 11:22:44;;;;;;;;;;;;;;;14.51;63.83;93890.69;4936653;29;1106;-53
2023/04/01 11:25:20;;;;;;;;;;;;;;;14.03;71.94;93915.34;4933640;29;1648;-52
2023/04/01 11:27:49;;;;;;;;;;;;;;;14.00;72.08;93886.19;4928539;29;1757;-52
2023/04/01 11:30:21;;;;;;;;;;;;;;;14.10;75.13;93893.84;4927507;29;1588;-52
2023/04/01 11:32:53;;;;;;;;;;;;;;;14.29;77.94;93903.66;4934556;29;1319;-52
2023/04/01 11:35:19;;;;;;;;;;;;;;;14.59;77.06;93913.88;4928196;29;1915;-52
2023/04/01 11:38:02;;;;;;;;;;;;;;;14.56;76.94;93908.91;4935513;29;2787;-52
2023/04/01 11:40:51;;;;;;;;;;;;;;;14.57;76.65;93897.97;4935372;29;2739;-53
2023/04/01 11:43:29;;;;;;;;;;;;;;;14.67;77.57;93894.78;4919117;29;1782;-52
2023/04/01 11:46:03;;;;;;;;;;;;;;;14.73;78.93;93893.09;4928520;29;1531;-52
2023/04/01 11:48:48;;;;;;;;;;;;;;;14.69;77.61;93897.28;4909505;29;1771;-52
2023/04/01 11:51:26;;;;;;;;;;;;;;;14.75;72.44;93893.69;4916427;29;1485;-52
2023/04/01 11:53:59;;;;;;;;;;;;;;;14.71;74.53;93874.47;4924984;29;1613;-52
2023/04/01 11:56:36;;;;;;;;;;;;;;;14.73;76.41;93858.94;4924892;29;1323;-52
2023/04/01 11:59:19;;;;;;;;;;;;;;;14.69;77.12;93849.66;4926316;29;1390;-52
2023/04/01 12:01:59;;;;;;;;;;;;;;;15.09;76.66;93852.03;4926018;29;1555;-53
2023/04/01 12:04:25;;;;;;;;;;;;;;;15.33;75.51;93850.38;4927823;29;1674;-52
2023/04/01 12:06:52;;;;;;;;;;;;;;;15.91;76.42;93867.19;4890976;29;1971;-53
2023/04/01 12:09:36;;;;;;;;;;;;;;;16.59;71.71;93880.41;4924389;29;1358;-52
2023/04/01 12:12:18;;;;;;;;;;;;;;;16.32;72.84;93900.72;4925173;29;1539;-52
2023/04/01 12:14:54;;;;;;;;;;;;;;;15.85;74.25;93900.44;4925314;29;1987;-53
2023/04/01 12:17:20;;;;;;;;;;;;;;;15.50;74.90;93892.88;4924600;29;1317;-53
2023/04/01 12:20:07;;;;;;;;;;;;;;;15.37;74.08;93913.50;4925826;29;1311;-53
2023/04/01 12:22:45;;;;;;;;;;;;;;;15.36;76.42;93908.34;4922128;29;2023;-53
2023/04/01 12:25:21;;;;;;;;;;;;;;;15.31;74.13;93882.09;4929315;29;1798;-53
2023/04/01 12:28:10;;;;;;;;;;;;;;;15.53;73.77;93890.56;4925462;29;1585;-53
2023/04/01 12:30:40;;;;;;;;;;;;;;;15.69;72.84;93891.88;4916557;29;1908;-53
2023/04/01 12:33:24;;;;;;;;;;;;;;;15.73;75.00;93884.16;4924860;29;1616;-53
2023/04/01 12:36:13;;;;;;;;;;;;;;;15.75;72.28;93888.31;4932137;29;1946;-52
2023/04/01 12:38:58;;;;;;;;;;;;;;;15.80;71.04;93887.63;4911401;29;1443;-53
2023/04/01 12:41:32;;;;;;;;;;;;;;;15.78;72.42;93901.34;4925934;29;1630;-52
2023/04/01 12:43:58;;;;;;;;;;;;;;;15.83;73.57;93913.31;4925988;29;1421;-52
2023/04/01 12:46:27;;;;;;;;;;;;;;;15.81;73.09;93902.75;4924145;29;1536;-53
2023/04/01 12:49:08;;;;;;;;;;;;;;;15.74;71.91;93889.34;4925402;29;1327;-52
2023/04/01 12:51:53;;;;;;;;;;;;;;;15.80;69.72;93888.47;4925612;29;1327;-53
2023/04/01 12:54:19;;;;;;;;;;;;;;;15.77;69.87;93872.72;4926028;29;1915;-53
2023/04/01 12:56:57;;;;;;;;;;;;;;;15.61;70.47;93862.50;4923920;29;1342;-53
2023/04/01 12:59:42;;;;;;;;;;;;;;;15.78;68.45;93862.75;4927127;29;1714;-53
2023/04/01 13:02:11;;;;;;;;;;;;;;;15.92;67.93;93858.06;4935865;29;1048;-53
2023/04/01 13:04:44;;;;;;;;;;;;;;;15.98;67.30;93847.19;4935816;29;1014;-53
2023/04/01 13:07:37;;;;;;;;;;;;;;;15.89;67.90;93840.47;4935016;29;1850;-53
2023/04/01 13:10:15;;;;;;;;;;;;;;;15.94;67.12;93837.09;4923079;29;1693;-53
2023/04/01 13:12:44;;;;;;;;;;;;;;;16.02;64.76;93830.56;4924848;29;1605;-53
2023/04/01 13:15:10;;;;;;;;;;;;;;;16.10;66.38;93832.94;4928593;29;1919;-53
2023/04/01 13:17:45;;;;;;;;;;;;;;;16.18;65.03;93840.72;4929321;29;1333;-53
2023/04/01 13:20:11;;;;;;;;;;;;;;;16.30;66.24;93844.31;4928311;29;1461;-53
2023/04/01 13:22:40;;;;;;;;;;;;;;;16.38;65.55;93843.97;4927628;29;1541;-53
2023/04/01 13:25:10;;;;;;;;;;;;;;;16.25;66.31;93852.25;4927696;29;1326;-53
2023/04/01 13:27:44;;;;;;;;;;;;;;;16.05;67.86;93844.44;4927604;29;1585;-53